createdAt,value
2022-09-20T00:01:48.839Z,2.37
2022-09-20T00:04:17.124Z,2.27
2022-09-20T00:06:45.699Z,2.30
2022-09-20T00:09:14.645Z,2.30
2022-09-20T00:11:42.860Z,2.63
2022-09-20T00:14:11.100Z,2.60
2022-09-20T00:16:42.064Z,2.73
2022-09-20T00:19:19.765Z,2.60
2022-09-20T00:21:48.420Z,2.80
2022-09-20T00:24:16.717Z,2.60
2022-09-20T00:26:45.196Z,2.50
2022-09-20T00:29:13.799Z,2.60
2022-09-20T00:31:42.940Z,2.43
2022-09-20T00:34:30.616Z,2.50
2022-09-20T00:36:58.883Z,2.57
2022-09-20T00:39:27.343Z,2.80
2022-09-20T00:41:55.601Z,2.67
2022-09-20T00:44:52.075Z,2.70
2022-09-20T00:47:26.433Z,2.60
2022-09-20T00:50:00.905Z,3.00
2022-09-20T00:52:30.721Z,2.50
2022-09-20T00:55:01.161Z,2.77
2022-09-20T00:57:35.162Z,2.60
2022-09-20T01:00:07.289Z,2.53
2022-09-20T01:02:38.616Z,3.07
2022-09-20T01:05:10.692Z,2.73
2022-09-20T01:07:40.049Z,2.60
2022-09-20T01:10:08.828Z,3.00
2022-09-20T01:12:40.636Z,2.70
2022-09-20T01:15:10.570Z,2.80
2022-09-20T01:17:43.500Z,2.70
2022-09-20T01:20:22.479Z,2.80
2022-09-20T01:23:17.306Z,2.63
2022-09-20T01:26:14.719Z,2.50
2022-09-20T01:28:47.807Z,2.60
2022-09-20T01:31:24.365Z,2.80
2022-09-20T01:33:59.305Z,2.80
2022-09-20T01:36:45.589Z,3.00
2022-09-20T01:39:23.656Z,2.87
2022-09-20T01:41:58.431Z,2.90
2022-09-20T01:44:35.935Z,3.73
2022-09-20T01:47:12.016Z,3.20
2022-09-20T01:49:53.844Z,3.20
2022-09-20T01:53:11.180Z,3.03
2022-09-20T01:56:11.585Z,3.20
2022-09-20T01:59:23.825Z,3.23
2022-09-20T02:02:26.102Z,3.60
2022-09-20T02:05:34.848Z,3.70
2022-09-20T02:08:19.791Z,3.53
2022-09-20T02:11:13.920Z,3.77
2022-09-20T02:14:04.688Z,3.10
2022-09-20T02:16:45.922Z,3.50
2022-09-20T02:19:50.933Z,4.00
2022-09-20T02:22:45.857Z,3.00
2022-09-20T02:25:24.446Z,3.57
2022-09-20T02:28:08.043Z,3.90
2022-09-20T02:30:47.751Z,3.57
2022-09-20T02:33:37.756Z,3.80
2022-09-20T02:36:22.973Z,4.00
2022-09-20T02:39:03.939Z,3.80
2022-09-20T02:41:54.884Z,3.63
2022-09-20T02:44:42.751Z,3.00
2022-09-20T02:47:20.842Z,3.57
2022-09-20T02:50:02.293Z,3.70
2022-09-20T02:52:39.393Z,3.63
2022-09-20T02:55:15.817Z,3.70
2022-09-20T02:57:54.483Z,3.80
2022-09-20T03:00:25.797Z,3.80
2022-09-20T03:03:07.348Z,3.50
2022-09-20T03:05:44.952Z,3.80
2022-09-20T03:08:29.654Z,3.90
2022-09-20T03:11:06.349Z,3.70
2022-09-20T03:13:51.113Z,3.60
2022-09-20T03:16:26.603Z,3.60
2022-09-20T03:19:03.392Z,3.93
2022-09-20T03:21:48.777Z,3.83
2022-09-20T03:24:30.015Z,3.50
2022-09-20T03:27:03.353Z,3.60
2022-09-20T03:29:48.961Z,3.30
2022-09-20T03:32:37.344Z,3.80
2022-09-20T03:35:23.577Z,3.80
2022-09-20T03:38:04.779Z,3.40
2022-09-20T03:41:05.748Z,3.80
2022-09-20T03:43:49.225Z,3.60
2022-09-20T03:46:19.608Z,3.80
2022-09-20T03:49:27.512Z,3.87
2022-09-20T03:52:03.928Z,3.87
2022-09-20T03:54:50.146Z,4.03
2022-09-20T03:57:43.534Z,4.07
2022-09-20T04:00:31.725Z,3.70
2022-09-20T04:03:22.937Z,4.00
2022-09-20T04:06:25.543Z,3.93
2022-09-20T04:09:34.974Z,4.13
2022-09-20T04:12:08.989Z,3.60
2022-09-20T04:14:47.690Z,4.17
2022-09-20T04:17:30.952Z,4.00
2022-09-20T04:20:06.812Z,3.57
2022-09-20T04:22:35.915Z,3.83
2022-09-20T04:25:14.034Z,4.13
2022-09-20T04:27:47.265Z,3.90
2022-09-20T04:30:21.225Z,3.70
2022-09-20T04:32:55.865Z,4.00
2022-09-20T04:35:54.947Z,3.70
2022-09-20T04:38:24.872Z,3.80
2022-09-20T04:41:18.045Z,3.73
2022-09-20T04:44:22.385Z,4.10
2022-09-20T04:47:37.286Z,4.03
2022-09-20T04:50:34.393Z,4.07
2022-09-20T04:53:35.321Z,4.07
2022-09-20T04:56:08.244Z,3.70
2022-09-20T04:58:39.662Z,4.10
2022-09-20T05:01:46.556Z,4.17
2022-09-20T05:04:57.395Z,3.77
2022-09-20T05:07:58.240Z,3.77
2022-09-20T05:11:02.345Z,3.90
2022-09-20T05:13:38.967Z,3.80
2022-09-20T05:16:13.218Z,4.10
2022-09-20T05:19:08.510Z,4.50
2022-09-20T05:22:03.928Z,4.10
2022-09-20T07:05:35.124Z,4.20
2022-09-20T07:08:08.657Z,5.20
2022-09-20T07:23:51.200Z,6.20
2022-09-20T07:26:22.483Z,5.53
2022-09-20T07:30:42.016Z,5.57
2022-09-20T16:06:52.490Z,2.00
2022-09-20T16:09:22.275Z,2.00
2022-09-20T16:11:51.353Z,2.00
2022-09-20T16:14:20.209Z,2.00
2022-09-20T16:16:48.974Z,1.83
2022-09-20T16:19:21.174Z,2.00
2022-09-20T16:21:58.169Z,2.10
2022-09-20T16:24:29.553Z,1.93
2022-09-20T16:26:58.880Z,3.10
2022-09-20T16:29:29.437Z,1.97
2022-09-20T16:31:58.885Z,2.40
2022-09-20T19:40:27.918Z,2.83
2022-09-20T19:43:51.058Z,3.77
2022-09-20T19:46:39.947Z,3.40
2022-09-20T19:49:51.752Z,2.90
2022-09-20T19:58:54.745Z,3.10
2022-09-20T20:01:33.316Z,2.77
2022-09-20T20:04:32.813Z,2.63
2022-09-20T20:13:17.133Z,2.67
2022-09-20T20:31:42.912Z,2.97
2022-09-20T20:34:16.428Z,2.70
2022-09-20T20:36:51.445Z,2.70
2022-09-20T20:39:22.959Z,2.37
2022-09-20T20:41:52.515Z,2.40
2022-09-20T20:44:22.001Z,2.60
2022-09-20T20:46:51.901Z,2.33
2022-09-20T20:49:23.627Z,2.50
2022-09-20T20:51:53.252Z,2.27
2022-09-20T20:54:21.955Z,2.60
2022-09-20T20:56:50.367Z,2.60
2022-09-20T20:59:19.037Z,2.30
2022-09-20T21:01:48.083Z,4.03
2022-09-20T21:04:18.424Z,3.63
2022-09-20T21:06:47.442Z,2.73
2022-09-20T21:09:15.972Z,2.40
2022-09-20T21:11:47.215Z,2.43
2022-09-20T21:14:19.681Z,2.67
2022-09-20T21:16:52.620Z,2.73
2022-09-20T21:19:26.281Z,2.93
2022-09-20T21:21:54.693Z,3.10
2022-09-20T21:24:23.582Z,3.20
2022-09-20T21:26:52.923Z,2.97
2022-09-20T21:29:21.417Z,2.93
2022-09-20T21:31:49.768Z,2.80
2022-09-20T21:34:18.083Z,2.87
2022-09-20T21:36:47.784Z,3.10
2022-09-20T21:39:16.049Z,2.80
2022-09-20T21:41:46.975Z,2.70
2022-09-20T21:44:15.607Z,3.10
2022-09-20T21:46:43.927Z,3.00
2022-09-20T21:49:15.388Z,3.23
2022-09-20T21:51:45.319Z,2.93
2022-09-20T21:54:14.961Z,3.03
2022-09-20T21:56:43.197Z,3.37
2022-09-20T21:59:11.507Z,3.20
2022-09-20T22:01:41.089Z,3.00
2022-09-20T22:04:11.247Z,3.03
2022-09-20T22:06:40.704Z,3.97
2022-09-20T22:09:10.523Z,3.40
2022-09-20T22:11:42.012Z,3.47
2022-09-20T22:14:11.609Z,3.17
2022-09-20T22:16:41.429Z,3.33
2022-09-20T22:19:11.478Z,3.20
2022-09-20T22:21:41.401Z,2.87
2022-09-20T22:24:11.919Z,3.23
2022-09-20T22:26:43.573Z,3.27
2022-09-20T22:29:11.960Z,3.40
2022-09-20T22:31:45.065Z,3.57
2022-09-20T22:34:15.939Z,3.23
2022-09-20T22:36:44.669Z,3.37
2022-09-20T22:39:13.640Z,3.90
2022-09-20T22:41:44.497Z,3.10
2022-09-20T22:44:12.972Z,3.60
2022-09-20T22:46:41.511Z,3.70
2022-09-20T22:49:10.695Z,3.57
2022-09-20T22:51:39.434Z,3.50
2022-09-20T22:54:10.105Z,6.70
2022-09-20T22:56:39.360Z,5.00
2022-09-20T22:59:10.800Z,3.80
2022-09-20T23:01:42.398Z,4.10
2022-09-20T23:04:12.658Z,3.47
2022-09-20T23:06:42.357Z,3.30
2022-09-20T23:09:13.033Z,3.57
2022-09-20T23:11:42.991Z,3.40
2022-09-20T23:14:14.940Z,4.17
2022-09-20T23:16:43.744Z,4.07
2022-09-20T23:19:13.191Z,5.50
2022-09-20T23:21:43.102Z,4.40
2022-09-20T23:24:12.900Z,3.93
2022-09-20T23:26:42.517Z,4.07
2022-09-20T23:29:14.053Z,3.80
2022-09-20T23:31:46.345Z,4.27
2022-09-20T23:34:16.539Z,3.90
2022-09-20T23:36:45.196Z,3.60
2022-09-20T23:39:13.732Z,4.33
2022-09-20T23:41:44.848Z,4.13
2022-09-20T23:44:18.145Z,4.30
2022-09-20T23:46:46.650Z,4.10
2022-09-20T23:49:14.907Z,3.67
2022-09-20T23:51:43.120Z,4.53
2022-09-20T23:54:11.432Z,4.20
2022-09-20T23:56:40.238Z,3.80
2022-09-20T23:59:08.437Z,4.00
